Dobbins Air Reserve Base Airport
KMGE : now visible

Airfield :











YOU CAN JOIN US ON...

 
LOGIN :

Register | Disclaimer

   EN    FR    IT 

 









Legend :    VFR   Marginal VFR   IFR   Intensive IFR   Very Intensive IFR
Visi :
Ceiling :
>= 8 km
>= 3000ft
5 to 8 km
1000 to 3000 ft
1500m to 5 km
500 to 1000 ft
800 to 1500m
200 to 500 ft
< 800m
< 200 ft
Symbols :   Thunderstorms  Fog  Heavy snow  Heavy precipitations  Wind > 20 kt






- Airport Elevation : 1068 ft


KMGE - Dobbins Air Reserve Base

CURRENT METAR :
  • 161756Z 09005KT 6SM -DZ BR BKN006 OVC011 22/21 A3007 RMK AO2A SLP177 P0000 60012 T02210207 10226 20195 58000 $

EXPIRED METARs :
  • 161656Z 10008KT 6SM BR BKN006 OVC010 22/21 A3008 RMK AO2A BKN V SCT SLP180 T02210209 $
  • 161556Z 10007KT 5SM BR OVC006 21/21 A3008 RMK AO2A SLP180 P0001 T02110209 $

TAF TAF KMGE
Valid from the 16 at 13:00 until the 17 at 19:00 UTC


161300Z 1613/1719 09009KT 4800 -RA BR OVC005 QNH3004INS
BECMG 1620/1621 10009KT 6000 -RA BR BKN008 OVC015 QNH3004INS
BECMG 1701/1702 VRB06KT 3200 BR OVC005 QNH3009INS
BECMG 1714/1715 10009KT 8000 BR BKN008 QNH3011INS
BECMG 1716/1717 10009KT 9999 NSW BKN012 BKN060 QNH3010INS TX22/1620Z TN18/1711Z
KZTL FIR / North America



MET'MAP, your aeronautical weather chart ! - Copyright ORBIFLY December 2007 - Disclaimer

ORBIFLY MET'MAP TEAM :

Programming & Development : Alexandra Zaïnal
Concept & original design : Baudouin d'Aumeries
Assistance for programming : Marc-Olivier Méhu
Technical & hardware support : Manuel Goepfert

Contact : metmap@orbifly.com




SOURCES & CREDITS :

   NOAA       Earth
Advisory